Terminal Aerodrome Forecast
Issued by NWS Wilmington, OH

Current Version | Previous Version | Graphics & Text | Print | Product List | Glossary On
Versions: 1 2 3 4 5 6 7 8 9 10 11 12 13 14 15
000
FTUS41 KILN 180500
TAFILN
TAF
KILN 180538Z 1806/1906 15003KT P6SM SCT150 BKN250
     FM181200 20005KT P6SM SCT060 BKN150
     FM181800 28008KT P6SM SCT060 BKN150
     FM190000 01005KT P6SM BKN050=

USA.gov is the U.S. government's official web portal to all federal, state and local government web resources and services.